createdAt,value
2019-05-20T00:00:40.702Z,99315.14
2019-05-20T00:03:09.153Z,99303.11
2019-05-20T00:05:37.639Z,99304.25
2019-05-20T00:08:06.052Z,99305.58
2019-05-20T00:10:34.485Z,99305.71
2019-05-20T00:13:02.922Z,99302.21
2019-05-20T00:15:31.336Z,99305.76
2019-05-20T00:18:01.291Z,99306.07
2019-05-20T00:20:29.714Z,99310.79
2019-05-20T00:22:58.139Z,99313.19
2019-05-20T00:25:27.614Z,99323.19
2019-05-20T00:27:56.032Z,99314.80
2019-05-20T00:30:24.454Z,99312.60
2019-05-20T00:32:52.872Z,99313.42
2019-05-20T00:35:21.329Z,99315.19
2019-05-20T00:37:49.730Z,99316.13
2019-05-20T00:40:18.160Z,99312.52
2019-05-20T00:42:46.658Z,99308.62
2019-05-20T00:45:16.692Z,99310.59
2019-05-20T00:47:45.176Z,99311.06
2019-05-20T00:50:13.907Z,99308.70
2019-05-20T00:52:42.277Z,99310.87
2019-05-20T00:55:16.194Z,99311.38
2019-05-20T00:57:44.648Z,99311.58
2019-05-20T01:00:13.295Z,99306.23
2019-05-20T01:02:55.803Z,99301.30
2019-05-20T01:05:11.862Z,99306.38
2019-05-20T01:07:40.310Z,99309.05
2019-05-20T01:10:08.820Z,99312.94
2019-05-20T01:12:37.362Z,99308.02
2019-05-20T01:15:06.890Z,99314.28
2019-05-20T01:17:35.372Z,99311.94
2019-05-20T01:20:06.608Z,99314.91
2019-05-20T01:22:35.730Z,99315.55
2019-05-20T01:25:06.004Z,99312.34
2019-05-20T01:27:35.904Z,99318.41
2019-05-20T01:30:06.591Z,99317.30
2019-05-20T01:32:35.125Z,99317.30
2019-05-20T01:35:03.916Z,99326.14
2019-05-20T01:37:32.461Z,99329.33
2019-05-20T01:40:00.906Z,99325.08
2019-05-20T01:42:29.352Z,99319.53
2019-05-20T01:44:57.772Z,99325.52
2019-05-20T01:47:26.192Z,99326.77
2019-05-20T01:49:54.680Z,99337.03
2019-05-20T01:52:23.110Z,99330.75
2019-05-20T01:54:51.554Z,99328.28
2019-05-20T01:57:20.024Z,99330.64
2019-05-20T01:59:48.455Z,99316.13
2019-05-20T02:02:16.879Z,99317.88
2019-05-20T02:04:45.301Z,99325.27
2019-05-20T02:07:13.813Z,99328.87
2019-05-20T02:09:42.268Z,99323.92
2019-05-20T02:12:10.669Z,99324.42
2019-05-20T02:14:40.736Z,99322.27
2019-05-20T02:17:09.318Z,99325.83
2019-05-20T02:19:37.786Z,99321.41
2019-05-20T02:22:06.230Z,99322.78
2019-05-20T02:24:37.840Z,99322.87
2019-05-20T02:27:06.290Z,99324.81
2019-05-20T02:29:34.733Z,99321.28
2019-05-20T02:32:03.157Z,99329.06
2019-05-20T02:34:31.588Z,99331.36
2019-05-20T02:37:00.026Z,99331.80
2019-05-20T02:39:28.438Z,99330.47
2019-05-20T02:41:56.893Z,99321.38
2019-05-20T02:44:25.321Z,99322.30
2019-05-20T02:46:53.779Z,99328.18
2019-05-20T02:49:22.216Z,99325.70
2019-05-20T02:51:51.229Z,99330.63
2019-05-20T02:54:19.669Z,99321.50
2019-05-20T02:56:48.100Z,99324.05
2019-05-20T02:59:16.512Z,99324.14
2019-05-20T03:01:44.939Z,99325.32
2019-05-20T03:04:13.463Z,99313.63
2019-05-20T03:06:41.918Z,99320.27
2019-05-20T03:09:12.380Z,99312.86
2019-05-20T03:11:44.037Z,99318.20
2019-05-20T03:14:12.452Z,99317.38
2019-05-20T03:16:42.954Z,99325.47
2019-05-20T03:19:11.408Z,99325.94
2019-05-20T03:21:39.842Z,99320.37
2019-05-20T03:24:08.283Z,99334.03
2019-05-20T03:26:36.775Z,99336.61
2019-05-20T03:29:05.289Z,99332.42
2019-05-20T03:31:33.758Z,99342.64
2019-05-20T03:34:02.189Z,99340.66
2019-05-20T03:36:30.619Z,99356.68
2019-05-20T03:38:59.040Z,99355.12
2019-05-20T03:41:27.466Z,99352.59
2019-05-20T03:43:56.171Z,99356.21
2019-05-20T03:46:24.629Z,99358.23
2019-05-20T03:48:53.138Z,99356.30
2019-05-20T03:51:21.580Z,99357.42
2019-05-20T03:53:50.002Z,99348.48
2019-05-20T03:56:18.484Z,99359.70
2019-05-20T03:58:46.871Z,99362.29
2019-05-20T04:01:15.291Z,99356.77
2019-05-20T04:03:43.772Z,99353.96
2019-05-20T04:06:12.187Z,99352.72
2019-05-20T04:08:40.668Z,99354.15
2019-05-20T04:11:09.147Z,99354.65
2019-05-20T04:13:37.609Z,99357.91
2019-05-20T04:16:06.085Z,99354.42
2019-05-20T04:18:34.537Z,99356.08
2019-05-20T04:21:03.132Z,99353.31
2019-05-20T04:23:31.633Z,99356.91
2019-05-20T04:26:00.054Z,99357.04
2019-05-20T04:28:28.537Z,99355.98
2019-05-20T04:30:56.985Z,99361.15
2019-05-20T04:33:25.432Z,99355.66
2019-05-20T04:35:53.848Z,99361.19
2019-05-20T04:38:22.280Z,99366.37
2019-05-20T04:40:52.323Z,99366.46
2019-05-20T04:43:20.845Z,99358.38
2019-05-20T04:45:49.284Z,99366.78
2019-05-20T04:48:17.813Z,99364.45
2019-05-20T04:50:46.251Z,99366.19
2019-05-20T04:53:14.675Z,99368.86
2019-05-20T04:55:43.167Z,99367.53
2019-05-20T04:58:11.633Z,99368.81
2019-05-20T05:00:48.611Z,99359.98
2019-05-20T05:03:17.092Z,99357.52
2019-05-20T05:05:45.539Z,99364.71
2019-05-20T05:08:14.122Z,99369.22
2019-05-20T05:10:42.693Z,99371.27
2019-05-20T05:13:11.208Z,99371.70
2019-05-20T05:15:39.673Z,99373.54
2019-05-20T05:18:08.287Z,99381.86
2019-05-20T05:20:36.783Z,99373.31
2019-05-20T05:23:05.279Z,99380.12
2019-05-20T05:25:35.610Z,99392.36
2019-05-20T05:28:04.941Z,99390.20
2019-05-20T05:30:35.260Z,99385.95
2019-05-20T05:33:03.807Z,99389.67
2019-05-20T05:35:32.266Z,99392.47
2019-05-20T05:38:00.847Z,99389.39
2019-05-20T05:40:30.814Z,99384.36
2019-05-20T05:42:59.281Z,99390.33
2019-05-20T05:45:32.279Z,99391.23
2019-05-20T05:48:01.581Z,99390.20
2019-05-20T05:50:30.575Z,99388.05
2019-05-20T05:52:59.605Z,99389.78
2019-05-20T05:55:28.157Z,99389.78
2019-05-20T05:57:56.660Z,99391.81
2019-05-20T06:00:26.826Z,99394.80
2019-05-20T06:02:55.371Z,99391.33
2019-05-20T06:05:23.951Z,99393.05
2019-05-20T06:07:53.255Z,99388.72
2019-05-20T06:10:22.253Z,99399.84
2019-05-20T06:12:50.700Z,99394.41
2019-05-20T06:15:19.728Z,99396.17
2019-05-20T06:17:48.205Z,99396.45
2019-05-20T06:20:17.317Z,99397.55
2019-05-20T06:22:45.779Z,99400.53
2019-05-20T06:25:14.757Z,99397.97
2019-05-20T06:27:46.331Z,99407.96
2019-05-20T06:30:15.538Z,99408.30
2019-05-20T06:32:44.078Z,99421.77
2019-05-20T06:35:14.367Z,99422.15
2019-05-20T06:37:47.533Z,99425.67
2019-05-20T06:40:19.358Z,99420.33
2019-05-20T06:42:47.874Z,99428.35
2019-05-20T06:45:16.498Z,99427.64
2019-05-20T06:47:45.135Z,99429.64
2019-05-20T06:50:15.355Z,99434.33
2019-05-20T06:52:45.367Z,99431.96
2019-05-20T06:55:14.845Z,99428.17
2019-05-20T06:57:43.354Z,99433.34
2019-05-20T07:00:12.870Z,99433.50
2019-05-20T07:02:41.351Z,99438.95
2019-05-20T07:05:12.877Z,99442.48
2019-05-20T07:07:41.404Z,99445.19
2019-05-20T07:10:10.196Z,99444.77
2019-05-20T07:12:41.548Z,99445.91
2019-05-20T07:15:09.272Z,99443.96
2019-05-20T07:17:39.411Z,99451.99
2019-05-20T07:20:08.358Z,99451.39
2019-05-20T07:22:54.518Z,99447.23
2019-05-20T07:25:07.530Z,99463.02
2019-05-20T07:27:36.004Z,99464.76
2019-05-20T07:30:05.808Z,99465.50
2019-05-20T07:32:34.357Z,99463.91
2019-05-20T07:35:02.985Z,99470.83
2019-05-20T07:37:31.543Z,99468.63
2019-05-20T07:40:00.029Z,99466.27
2019-05-20T07:42:28.547Z,99466.27
2019-05-20T07:44:57.072Z,99462.36
2019-05-20T07:47:25.795Z,99459.57
2019-05-20T07:49:54.541Z,99460.48
2019-05-20T07:52:25.542Z,99458.83
2019-05-20T07:54:56.307Z,99467.31
2019-05-20T07:57:27.878Z,99464.73
2019-05-20T07:59:58.059Z,99459.37
2019-05-20T08:02:27.223Z,99459.64
2019-05-20T08:05:03.863Z,99469.30
2019-05-20T08:07:51.331Z,99467.06
2019-05-20T08:10:44.015Z,99460.59
2019-05-20T08:13:31.796Z,99470.59
2019-05-20T08:16:02.856Z,99476.03
2019-05-20T08:18:47.626Z,99478.20
2019-05-20T08:21:17.711Z,99477.77
2019-05-20T08:23:49.578Z,99485.52
2019-05-20T08:26:16.438Z,99482.30
2019-05-20T08:28:47.928Z,99481.25
2019-05-20T08:31:16.368Z,99488.34
2019-05-20T08:33:45.058Z,99494.46
2019-05-20T08:36:13.577Z,99493.58
2019-05-20T08:38:42.059Z,99490.77
2019-05-20T08:41:10.652Z,99489.67
2019-05-20T08:43:39.219Z,99491.25
2019-05-20T08:46:07.794Z,99492.73
2019-05-20T08:48:37.871Z,99493.93
2019-05-20T08:51:06.458Z,99493.83
2019-05-20T08:53:34.908Z,99499.94
2019-05-20T08:56:09.224Z,99503.72
2019-05-20T08:58:37.870Z,99500.58
2019-05-20T09:01:11.957Z,99509.86
2019-05-20T09:03:39.216Z,99499.94
2019-05-20T09:06:09.264Z,99501.45
2019-05-20T09:08:37.802Z,99495.41
2019-05-20T09:11:06.294Z,99499.52
2019-05-20T09:13:39.767Z,99498.92
2019-05-20T09:16:08.436Z,99491.14
2019-05-20T09:18:44.228Z,99489.55
2019-05-20T09:21:20.531Z,99487.54
2019-05-20T09:23:54.348Z,99478.67
2019-05-20T09:26:26.967Z,99481.28
2019-05-20T09:28:55.496Z,99483.23
2019-05-20T09:31:27.210Z,99478.86
2019-05-20T09:33:58.580Z,99486.62
2019-05-20T09:36:42.438Z,99480.52
2019-05-20T09:39:18.721Z,99486.22
2019-05-20T09:41:47.235Z,99495.72
2019-05-20T09:44:15.669Z,99495.88
2019-05-20T09:46:44.176Z,99498.87
2019-05-20T09:49:12.602Z,99499.09
2019-05-20T09:51:41.063Z,99496.48
2019-05-20T09:54:09.479Z,99506.48
2019-05-20T09:56:37.967Z,99502.20
2019-05-20T09:59:06.488Z,99497.81
2019-05-20T10:01:39.426Z,99496.55
2019-05-20T10:04:05.136Z,99495.97
2019-05-20T10:06:33.621Z,99494.88
2019-05-20T10:09:02.063Z,99500.52
2019-05-20T10:11:30.532Z,99503.92
2019-05-20T10:13:58.968Z,99506.28
2019-05-20T10:16:27.470Z,99509.79
2019-05-20T10:18:56.018Z,99502.92
2019-05-20T10:21:24.592Z,99497.87
2019-05-20T10:23:53.047Z,99507.42
2019-05-20T10:26:21.773Z,99500.34
2019-05-20T10:28:50.314Z,99503.25
2019-05-20T10:31:18.756Z,99506.16
2019-05-20T10:33:48.944Z,99515.36
2019-05-20T10:36:17.390Z,99509.05
2019-05-20T10:38:57.331Z,99505.06
2019-05-20T10:41:16.008Z,99514.28
2019-05-20T10:43:46.142Z,99512.84
2019-05-20T10:46:14.459Z,99514.94
2019-05-20T10:48:42.909Z,99511.21
2019-05-20T10:51:11.413Z,99511.64
2019-05-20T10:53:39.974Z,99512.77
2019-05-20T10:56:08.462Z,99515.90
2019-05-20T10:58:36.905Z,99515.92
2019-05-20T11:01:05.370Z,99516.50
2019-05-20T11:03:33.814Z,99518.86
2019-05-20T11:06:02.327Z,99521.77
2019-05-20T11:08:30.776Z,99513.97
2019-05-20T11:10:59.211Z,99511.31
2019-05-20T11:13:27.660Z,99508.42
2019-05-20T11:15:56.097Z,99506.36
2019-05-20T11:18:24.544Z,99501.31
2019-05-20T11:20:52.967Z,99507.70
2019-05-20T11:23:21.393Z,99507.77
2019-05-20T11:25:49.822Z,99509.64
2019-05-20T11:28:18.245Z,99508.20
2019-05-20T11:30:46.768Z,99504.48
2019-05-20T11:33:15.233Z,99496.67
2019-05-20T11:35:43.620Z,99496.34
2019-05-20T11:38:12.137Z,99493.64
2019-05-20T11:40:40.530Z,99486.31
2019-05-20T11:43:08.985Z,99485.84
2019-05-20T11:45:37.372Z,99485.91
2019-05-20T11:48:05.805Z,99482.73
2019-05-20T11:50:34.216Z,99480.47
2019-05-20T11:53:02.663Z,99478.05
2019-05-20T11:55:31.112Z,99476.35
2019-05-20T11:58:14.635Z,99479.69
2019-05-20T12:00:29.951Z,99474.67
2019-05-20T12:02:58.396Z,99475.27
2019-05-20T12:05:26.802Z,99477.00
2019-05-20T12:07:55.238Z,99485.00
2019-05-20T12:10:23.654Z,99481.70
2019-05-20T12:12:52.265Z,99478.45
2019-05-20T12:15:20.643Z,99479.89
2019-05-20T12:17:49.071Z,99477.94
2019-05-20T12:20:17.826Z,99474.91
2019-05-20T12:22:46.274Z,99477.57
2019-05-20T12:25:15.142Z,99472.33
2019-05-20T12:27:43.593Z,99466.23
2019-05-20T12:30:12.346Z,99463.09
2019-05-20T12:32:40.749Z,99461.70
2019-05-20T12:35:09.556Z,99460.87
2019-05-20T12:37:37.955Z,99458.75
2019-05-20T12:40:08.379Z,99462.27
2019-05-20T12:42:36.395Z,99455.97
2019-05-20T12:45:09.635Z,99453.44
2019-05-20T12:47:38.127Z,99452.20
2019-05-20T12:50:06.996Z,99447.63
2019-05-20T12:52:35.549Z,99450.86
2019-05-20T12:55:08.580Z,99442.88
2019-05-20T12:57:35.012Z,99438.88
2019-05-20T13:00:07.789Z,99437.54
2019-05-20T13:02:36.436Z,99448.48
2019-05-20T13:05:07.908Z,99445.33
2019-05-20T13:07:36.298Z,99445.73
2019-05-20T13:10:26.959Z,99441.58
2019-05-20T13:12:39.745Z,99433.00
2019-05-20T13:15:10.254Z,99437.37
2019-05-20T13:17:43.893Z,99436.38
2019-05-20T13:20:09.280Z,99426.24
2019-05-20T13:22:37.701Z,99434.14
2019-05-20T13:25:07.713Z,99421.16
2019-05-20T13:27:36.137Z,99419.41
2019-05-20T13:30:06.587Z,99420.01
2019-05-20T13:32:35.013Z,99427.17
2019-05-20T13:35:04.186Z,99425.47
2019-05-20T13:37:32.593Z,99422.61
2019-05-20T13:40:03.123Z,99416.51
2019-05-20T13:42:31.201Z,99420.68
2019-05-20T13:44:59.628Z,99418.55
2019-05-20T13:47:28.058Z,99417.28
2019-05-20T13:49:56.516Z,99410.70
2019-05-20T13:52:26.491Z,99402.70
2019-05-20T13:54:54.898Z,99405.58
2019-05-20T13:57:23.313Z,99403.45
2019-05-20T13:59:51.744Z,99399.94
2019-05-20T14:02:20.157Z,99393.52
2019-05-20T14:04:49.751Z,99390.44
2019-05-20T14:07:18.171Z,99393.59
2019-05-20T14:09:46.616Z,99387.88
2019-05-20T14:12:15.010Z,99378.16
2019-05-20T14:14:43.518Z,99380.28
2019-05-20T14:17:11.926Z,99376.22
2019-05-20T14:19:40.359Z,99378.20
2019-05-20T14:22:08.774Z,99376.98
2019-05-20T14:24:37.229Z,99381.19
2019-05-20T14:27:05.725Z,99378.05
2019-05-20T14:29:34.157Z,99376.84
2019-05-20T14:32:02.956Z,99362.86
2019-05-20T14:34:31.608Z,99357.41
2019-05-20T14:37:00.016Z,99363.16
2019-05-20T14:39:28.454Z,99360.25
2019-05-20T14:41:56.890Z,99353.87
2019-05-20T14:44:25.313Z,99353.87
2019-05-20T14:46:53.733Z,99346.73
2019-05-20T14:49:22.191Z,99351.63
2019-05-20T14:51:50.600Z,99347.77
2019-05-20T14:54:19.828Z,99348.11
2019-05-20T14:56:48.238Z,99340.61
2019-05-20T14:59:16.695Z,99350.95
2019-05-20T15:01:45.103Z,99338.87
2019-05-20T15:04:13.541Z,99335.82
2019-05-20T15:06:41.947Z,99320.69
2019-05-20T15:09:10.451Z,99326.47
2019-05-20T15:11:39.138Z,99330.35
2019-05-20T15:14:07.569Z,99310.66
2019-05-20T15:16:35.994Z,99310.80
2019-05-20T15:19:04.425Z,99308.23
2019-05-20T15:21:32.847Z,99313.29
2019-05-20T15:24:01.313Z,99317.97
2019-05-20T15:26:30.097Z,99315.11
2019-05-20T15:28:58.524Z,99317.63
2019-05-20T15:31:26.942Z,99324.36
2019-05-20T15:33:55.351Z,99309.09
2019-05-20T15:36:24.050Z,99330.56
2019-05-20T15:38:52.447Z,99329.28
2019-05-20T15:41:20.899Z,99339.70
2019-05-20T15:43:49.325Z,99337.77
2019-05-20T15:46:17.749Z,99324.58
2019-05-20T15:48:47.845Z,99324.19
2019-05-20T15:51:16.190Z,99297.70
2019-05-20T15:53:44.632Z,99327.11
2019-05-20T15:56:13.058Z,99317.06
2019-05-20T15:58:41.484Z,99310.08
2019-05-20T16:01:09.918Z,99300.46
2019-05-20T16:03:38.332Z,99303.23
2019-05-20T16:06:06.760Z,99301.00
2019-05-20T16:08:35.181Z,99297.77
2019-05-20T16:11:06.664Z,99301.89
2019-05-20T16:13:35.103Z,99329.69
2019-05-20T16:16:03.902Z,99347.80
2019-05-20T16:18:32.352Z,99337.02
2019-05-20T16:21:00.829Z,99316.89
2019-05-20T16:23:29.216Z,99322.29
2019-05-20T16:25:57.647Z,99325.92
2019-05-20T16:28:26.205Z,99315.56
2019-05-20T16:30:54.653Z,99308.30
2019-05-20T16:33:23.079Z,99309.13
2019-05-20T16:35:51.579Z,99326.59
2019-05-20T16:38:19.939Z,99332.39
2019-05-20T16:40:48.394Z,99343.59
2019-05-20T16:43:16.830Z,99366.72
2019-05-20T16:45:45.472Z,99413.06
2019-05-20T16:48:16.718Z,99428.27
2019-05-20T16:50:47.377Z,99413.50
2019-05-20T16:53:15.902Z,99396.86
2019-05-20T16:55:44.653Z,99386.73
2019-05-20T16:58:30.512Z,99374.19
2019-05-20T17:01:03.122Z,99364.52
2019-05-20T17:03:29.263Z,99360.18
2019-05-20T17:05:57.740Z,99360.18
2019-05-20T17:08:26.194Z,99426.83
2019-05-20T17:10:54.793Z,99470.79
2019-05-20T17:13:23.284Z,99430.09
2019-05-20T17:15:51.749Z,99392.10
2019-05-20T17:18:20.241Z,99372.62
2019-05-20T17:20:50.744Z,99367.64
2019-05-20T17:23:19.393Z,99369.55
2019-05-20T17:25:52.015Z,99398.00
2019-05-20T17:28:19.876Z,99394.65
2019-05-20T17:30:48.396Z,99418.51
2019-05-20T17:33:16.893Z,99431.44
2019-05-20T17:35:45.342Z,99435.89
2019-05-20T17:38:14.007Z,99421.26
2019-05-20T17:40:42.591Z,99420.82
2019-05-20T17:43:11.099Z,99418.05
2019-05-20T17:45:39.686Z,99416.92
2019-05-20T17:48:11.184Z,99424.63
2019-05-20T17:50:39.597Z,99426.42
2019-05-20T17:53:08.253Z,99431.63
2019-05-20T17:55:36.775Z,99431.61
2019-05-20T17:58:05.436Z,99419.22
2019-05-20T18:00:33.889Z,99421.70
2019-05-20T18:03:02.403Z,99415.58
2019-05-20T18:05:31.001Z,99411.72
2019-05-20T18:07:59.522Z,99411.05
2019-05-20T18:10:28.036Z,99407.03
2019-05-20T18:12:56.548Z,99409.88
2019-05-20T18:15:24.990Z,99403.01
2019-05-20T18:17:53.498Z,99401.66
2019-05-20T18:20:22.179Z,99403.01
2019-05-20T18:22:51.675Z,99394.13
2019-05-20T18:25:20.140Z,99396.29
2019-05-20T18:27:48.778Z,99391.33
2019-05-20T18:30:17.454Z,99382.13
2019-05-20T18:32:46.084Z,99372.84
2019-05-20T18:35:19.399Z,99368.64
2019-05-20T18:37:49.963Z,99377.45
2019-05-20T18:40:19.286Z,99391.95
2019-05-20T18:43:18.411Z,99397.17
2019-05-20T18:45:46.922Z,99390.77
2019-05-20T18:48:15.471Z,99399.70
2019-05-20T18:50:47.375Z,99391.95
2019-05-20T18:53:15.857Z,99398.87
2019-05-20T18:55:44.471Z,99397.11
2019-05-20T18:58:12.986Z,99388.08
2019-05-20T19:00:41.558Z,99392.48
2019-05-20T19:03:11.046Z,99397.73
2019-05-20T19:05:39.540Z,99391.89
2019-05-20T19:08:08.161Z,99396.81
2019-05-20T19:10:36.689Z,99392.75
2019-05-20T19:13:05.366Z,99397.36
2019-05-20T19:15:33.915Z,99394.50
2019-05-20T19:18:03.181Z,99396.70
2019-05-20T19:20:31.612Z,99396.78
2019-05-20T19:23:00.098Z,99391.76
2019-05-20T19:25:37.376Z,99390.41
2019-05-20T19:27:58.823Z,99395.27
2019-05-20T19:30:27.253Z,99390.06
2019-05-20T19:32:55.716Z,99401.13
2019-05-20T19:35:25.278Z,99406.25
2019-05-20T19:37:53.769Z,99403.06
2019-05-20T19:40:22.326Z,99409.55
2019-05-20T19:42:50.792Z,99408.42
2019-05-20T19:45:19.291Z,99410.11
2019-05-20T19:47:49.041Z,99413.00
2019-05-20T19:50:17.570Z,99422.09
2019-05-20T19:52:46.976Z,99431.75
2019-05-20T19:55:18.589Z,99431.89
2019-05-20T19:57:45.626Z,99431.28
2019-05-20T20:00:16.522Z,99434.80
2019-05-20T20:02:44.328Z,99432.62
2019-05-20T20:05:14.071Z,99435.42
2019-05-20T20:07:42.919Z,99441.38
2019-05-20T20:10:12.358Z,99441.47
2019-05-20T20:12:43.526Z,99446.70
2019-05-20T20:15:21.150Z,99440.03
2019-05-20T20:17:53.778Z,99438.12
2019-05-20T20:20:22.234Z,99438.86
2019-05-20T20:22:51.002Z,99435.88
2019-05-20T20:25:19.607Z,99437.62
2019-05-20T20:27:48.072Z,99451.66
2019-05-20T20:30:16.862Z,99458.08
2019-05-20T20:32:45.380Z,99452.44
2019-05-20T20:35:14.113Z,99454.14
2019-05-20T20:37:45.380Z,99448.25
2019-05-20T20:40:15.017Z,99443.19
2019-05-20T20:42:44.846Z,99443.77
2019-05-20T20:45:14.476Z,99438.85
2019-05-20T20:47:42.947Z,99437.45
2019-05-20T20:50:13.313Z,99436.98
2019-05-20T20:52:42.528Z,99430.45
2019-05-20T20:55:11.128Z,99430.61
2019-05-20T20:57:39.612Z,99424.50
2019-05-20T21:00:11.076Z,99419.13
2019-05-20T21:02:52.790Z,99415.83
2019-05-20T21:05:12.092Z,99420.93
2019-05-20T21:07:43.698Z,99418.00
2019-05-20T21:10:12.304Z,99411.06
2019-05-20T21:12:40.887Z,99420.63
2019-05-20T21:15:10.754Z,99421.51
2019-05-20T21:17:39.317Z,99423.31
2019-05-20T21:20:09.613Z,99422.95
2019-05-20T21:22:38.155Z,99425.78
2019-05-20T21:25:10.394Z,99425.02
2019-05-20T21:27:38.837Z,99418.82
2019-05-20T21:30:08.528Z,99426.30
2019-05-20T21:32:37.023Z,99426.66
2019-05-20T21:35:09.620Z,99428.98
2019-05-20T21:37:39.555Z,99442.27
2019-05-20T21:40:08.662Z,99445.41
2019-05-20T21:42:37.189Z,99450.83
2019-05-20T21:45:06.994Z,99457.48
2019-05-20T21:47:35.503Z,99457.49
2019-05-20T21:50:04.885Z,99454.34
2019-05-20T21:52:33.413Z,99458.67
2019-05-20T21:55:04.036Z,99451.49
2019-05-20T21:57:32.439Z,99460.44
2019-05-20T22:00:00.931Z,99456.13
2019-05-20T22:02:29.469Z,99451.49
2019-05-20T22:04:57.877Z,99464.31
2019-05-20T22:07:28.010Z,99462.71
2019-05-20T22:09:56.480Z,99465.19
2019-05-20T22:12:24.956Z,99466.32
2019-05-20T22:14:53.490Z,99473.24
2019-05-20T22:17:21.952Z,99478.61
2019-05-20T22:19:50.571Z,99492.55
2019-05-20T22:22:29.363Z,99493.42
2019-05-20T22:24:57.845Z,99495.89
2019-05-20T22:27:26.262Z,99498.37
2019-05-20T22:29:54.704Z,99506.25
2019-05-20T22:32:23.221Z,99502.45
2019-05-20T22:34:53.910Z,99498.84
2019-05-20T22:37:21.884Z,99506.25
2019-05-20T22:39:50.376Z,99500.26
2019-05-20T22:42:18.799Z,99494.09
2019-05-20T22:44:48.554Z,99484.97
2019-05-20T22:47:18.526Z,99473.23
2019-05-20T22:49:46.976Z,99464.88
2019-05-20T22:52:15.424Z,99467.91
2019-05-20T22:54:43.926Z,99468.98
2019-05-20T22:57:12.438Z,99466.82
2019-05-20T22:59:40.890Z,99457.02
2019-05-20T23:02:10.880Z,99453.28
2019-05-20T23:04:42.334Z,99446.02
2019-05-20T23:07:10.903Z,99449.31
2019-05-20T23:09:39.347Z,99439.75
2019-05-20T23:12:07.759Z,99430.70
2019-05-20T23:14:36.201Z,99426.62
2019-05-20T23:17:04.661Z,99429.59
2019-05-20T23:19:33.115Z,99431.66
2019-05-20T23:22:01.569Z,99426.50
2019-05-20T23:24:30.041Z,99425.01
2019-05-20T23:26:58.487Z,99424.26
2019-05-20T23:29:26.926Z,99418.71
2019-05-20T23:31:55.378Z,99419.64
2019-05-20T23:34:23.850Z,99421.06
2019-05-20T23:36:52.302Z,99417.19
2019-05-20T23:39:20.766Z,99420.18
2019-05-20T23:41:49.255Z,99416.60
2019-05-20T23:44:17.701Z,99416.16
2019-05-20T23:46:46.148Z,99416.16
2019-05-20T23:49:14.592Z,99420.42
2019-05-20T23:51:43.094Z,99414.64
2019-05-20T23:54:11.571Z,99418.45
2019-05-20T23:56:40.024Z,99414.17
2019-05-20T23:59:09.994Z,99414.25
